San Jose, CA

7:41 AM PDT on September 22, 2014 (GMT -0700)
North San Jose / 680 & Hostetter | Change Station
CLOSE
Current Station
Personal Weather Station
Location: San Jose, CA
Elevation: 85 ft
Nearby Weather Stations

Elev 85 ft 37.39 °N, 121.88 °W | Updated 4 seconds ago

Overcast
Overcast
64.5 °F
Feels Like 64.5 °F
N
0.0
Wind Variable Wind from NW
Gusts 1.0 mph

Today
High -- | Low -- °F
--% Chance of Precip.
Yesterday
High -- | Low -- °F
Precip. -- in
6:55 AM 7:04 PM
Waning Crescent, 3% visible
Pressure 30.02 in
Visibility 10.0 miles
Clouds Few 800 ft
Mostly Cloudy 1400 ft
Overcast 1800 ft
Dew Point 59 °F
Humidity 82%
Rainfall 0.00 in
Snow Depth 0 in , 0 in , 0 in
UV 0 out of 12
Pollen 3.70 out of 12
PM2.5 Good
Flu Activity Not available.
SPECI KSJC 221431Z 33006KT 10SM FEW008 BKN014 OVC018 17/14 A3002 RMK AO2

More Conditions Fewer Conditions

Pressure 30.02 in
Visibility 10.0 miles
Clouds Few 800 ft
Mostly Cloudy 1400 ft
Overcast 1800 ft
Dew Point 59 °F
Humidity 82%
Rainfall 0.00 in
Snow Depth 0 in , 0 in , 0 in
UV 0 out of 12
Pollen 3.70 out of 12
PM2.5 Good
Flu Activity Not available.
SPECI KSJC 221431Z 33006KT 10SM FEW008 BKN014 OVC018 17/14 A3002 RMK AO2

More Conditions Fewer Conditions

10-Day Weather Forecast

Almanac

Astronomy

Sep. 22, 2014 Rise Set
Actual Time 6:55 AM PDT 7:04 PM PDT
Civil Twilight 6:29 AM PDT 7:30 PM PDT
Nautical Twilight 5:58 AM PDT 8:00 PM PDT
Astronomical Twilight 5:28 AM PDT 8:31 PM PDT
Moon 5:30 AM PDT 6:14 PM PDT
Length of Visible Light 13h 00m
Length of Day
12h 08m
Tomorrow will be 2m 22s shorter.
Waning Crescent, 3% of the Moon is Illuminated
Today
Waning Crescent
Sep 24
New
Oct 1
First Quarter
Oct 8
Full
Oct 15
Last Quarter

Today's Extremes

State Highs State Lows

Community

WunderPhotos

Upload Photos

1,755,459 photos uploaded!

WunderBlogs® & News

By Dr. Jeff Masters
Director of Meteorology, Weather Underground
By Kari Strenfel
Meteorologist, Weather Underground
By Christopher C. Burt
Weather Historian, Weather Underground
September 22, 2014
September 22, 2014
September 22, 2014

Nearby

Air Quality

  Air Quality AQ Index Pollutant
Yesterday Good
OZONE
Yesterday Good
PM2.5
Current Good
PM2.5
Monday Good
OZONE
Tuesday Good
OZONE
Wednesday Good
OZONE
Thursday Good
OZONE
Friday Good
OZONE

Snow Depth

Station Depth Elevation
Fallen Leaf 0 in 6300 ft
Rubicon #2 0 in 7500 ft
Tahoe City Cross 0 in 6750 ft
Independence Camp 0 in 7000 ft
Summit Meadow 1 in 9122 ft

Earthquake Activity

City Distance Mag. Time & Date
Sonoma, California 70 miles 2.7 1:17 PM PDT
2014-09-21
Cloverdale, California 113 miles 2.5 9:15 PM PDT
2014-09-20
Livermore, California 22 miles 2.6 3:37 AM PDT
2014-09-19
Minimum magnitude displayed is 2.5.

Coastal Water Temperatures

Place Temperature
No Stations Reporting

Nearby Weather Stations